createdAt,value
2022-10-12T00:01:25.429Z,11.16
2022-10-12T00:03:05.192Z,11.15
2022-10-12T00:04:44.968Z,11.15
2022-10-12T00:06:24.745Z,11.11
2022-10-12T00:08:04.495Z,11.11
2022-10-12T00:09:44.259Z,11.11
2022-10-12T00:11:24.018Z,11.1
2022-10-12T00:13:03.803Z,11.07
2022-10-12T00:14:43.555Z,11.08
2022-10-12T00:16:23.338Z,11.06
2022-10-12T00:18:03.105Z,11.03
2022-10-12T00:19:42.858Z,11
2022-10-12T00:21:22.677Z,11.01
2022-10-12T00:23:02.401Z,10.98
2022-10-12T00:24:42.162Z,11
2022-10-12T00:26:21.938Z,10.98
2022-10-12T00:28:01.694Z,10.97
2022-10-12T00:31:21.258Z,10.91
2022-10-12T00:33:01.021Z,10.92
2022-10-12T00:34:40.800Z,10.9
2022-10-12T00:36:20.529Z,10.87
2022-10-12T00:38:00.301Z,10.88
2022-10-12T00:39:40.073Z,10.84
2022-10-12T00:41:19.840Z,10.83
2022-10-12T00:42:59.596Z,10.83
2022-10-12T00:44:39.524Z,10.79
2022-10-12T00:46:19.145Z,10.81
2022-10-12T00:47:58.931Z,10.78
2022-10-12T00:49:38.726Z,10.79
2022-10-12T00:51:18.447Z,10.77
2022-10-12T00:52:58.220Z,10.76
2022-10-12T00:54:37.990Z,10.72
2022-10-12T00:56:17.785Z,10.72
2022-10-12T00:57:57.523Z,10.69
2022-10-12T00:59:37.270Z,10.68
2022-10-12T01:01:17.064Z,10.69
2022-10-12T01:02:56.820Z,10.67
2022-10-12T01:04:36.571Z,10.67
2022-10-12T01:06:16.360Z,10.66
2022-10-12T01:07:56.125Z,10.65
2022-10-12T01:09:35.891Z,10.6
2022-10-12T01:11:15.645Z,10.6
2022-10-12T01:12:55.427Z,10.6
2022-10-12T01:14:35.193Z,10.58
2022-10-12T01:16:14.949Z,10.55
2022-10-12T01:17:54.721Z,10.54
2022-10-12T01:19:34.494Z,10.56
2022-10-12T01:21:14.250Z,10.51
2022-10-12T01:22:54.029Z,10.52
2022-10-12T01:24:33.791Z,10.51
2022-10-12T01:26:13.550Z,10.48
2022-10-12T01:27:53.317Z,10.49
2022-10-12T01:29:33.086Z,10.48
2022-10-12T01:31:12.878Z,10.47
2022-10-12T01:32:52.620Z,10.44
2022-10-12T01:34:32.409Z,10.41
2022-10-12T01:36:12.174Z,10.41
2022-10-12T01:37:51.929Z,10.38
2022-10-12T01:39:31.686Z,10.4
2022-10-12T01:41:11.474Z,10.36
2022-10-12T01:42:51.254Z,10.36
2022-10-12T01:44:31.080Z,10.36
2022-10-12T01:46:10.755Z,10.36
2022-10-12T01:47:50.533Z,10.32
2022-10-12T01:49:30.311Z,10.3
2022-10-12T01:51:10.057Z,10.31
2022-10-12T01:52:49.844Z,10.28
2022-10-12T01:54:29.619Z,10.29
2022-10-12T01:56:09.370Z,10.25
2022-10-12T01:57:49.133Z,10.26
2022-10-12T01:59:28.916Z,10.21
2022-10-12T02:01:08.675Z,10.21
2022-10-12T02:02:48.446Z,10.18
2022-10-12T02:04:28.195Z,10.21
2022-10-12T02:06:07.970Z,10.16
2022-10-12T02:07:47.732Z,10.18
2022-10-12T02:09:27.580Z,10.18
2022-10-12T02:11:07.279Z,10.13
2022-10-12T02:12:47.050Z,10.1
2022-10-12T02:14:26.801Z,10.1
2022-10-12T02:16:06.639Z,10.09
2022-10-12T02:17:46.348Z,10.1
2022-10-12T02:19:26.104Z,10.06
2022-10-12T02:21:05.883Z,10.06
2022-10-12T02:22:45.656Z,10.07
2022-10-12T02:24:25.415Z,10.04
2022-10-12T02:26:05.178Z,10.01
2022-10-12T02:27:44.938Z,10.01
2022-10-12T02:29:24.715Z,10.02
2022-10-12T02:31:04.486Z,10
2022-10-12T02:32:44.259Z,9.99
2022-10-12T02:34:24.030Z,9.93
2022-10-12T02:36:03.779Z,9.93
2022-10-12T02:37:43.554Z,9.93
2022-10-12T02:39:23.310Z,9.93
2022-10-12T02:42:42.854Z,9.92
2022-10-12T02:44:22.619Z,9.89
2022-10-12T02:46:02.381Z,9.89
2022-10-12T02:47:42.147Z,9.85
2022-10-12T02:49:21.921Z,9.85
2022-10-12T02:51:01.696Z,9.83
2022-10-12T02:52:41.450Z,9.84
2022-10-12T02:54:21.214Z,9.82
2022-10-12T02:56:00.994Z,9.79
2022-10-12T02:57:40.762Z,9.77
2022-10-12T02:59:20.535Z,9.8
2022-10-12T03:01:00.298Z,9.79
2022-10-12T03:02:40.069Z,9.75
2022-10-12T03:04:19.833Z,9.75
2022-10-12T03:05:59.589Z,9.72
2022-10-12T03:07:39.350Z,9.74
2022-10-12T03:09:19.129Z,9.7
2022-10-12T03:10:58.891Z,9.68
2022-10-12T03:12:38.670Z,9.7
2022-10-12T03:14:18.438Z,9.66
2022-10-12T03:15:58.203Z,9.64
2022-10-12T03:17:37.961Z,9.67
2022-10-12T03:19:17.743Z,9.64
2022-10-12T03:20:57.507Z,9.63
2022-10-12T03:22:37.254Z,9.63
2022-10-12T03:24:17.025Z,9.59
2022-10-12T03:25:56.799Z,9.6
2022-10-12T03:27:36.615Z,9.57
2022-10-12T03:29:16.342Z,9.55
2022-10-12T03:30:56.105Z,9.55
2022-10-12T03:32:35.886Z,9.56
2022-10-12T03:34:15.655Z,9.51
2022-10-12T03:35:55.435Z,9.51
2022-10-12T03:37:35.176Z,9.49
2022-10-12T03:39:14.945Z,9.47
2022-10-12T03:40:54.711Z,9.47
2022-10-12T03:42:34.465Z,9.47
2022-10-12T03:44:14.244Z,9.45
2022-10-12T03:45:54.004Z,9.46
2022-10-12T03:47:33.785Z,9.46
2022-10-12T03:49:13.534Z,9.43
2022-10-12T03:50:53.303Z,9.42
2022-10-12T03:52:33.070Z,9.43
2022-10-12T03:54:12.833Z,9.41
2022-10-12T03:55:52.594Z,9.37
2022-10-12T03:57:32.379Z,9.35
2022-10-12T03:59:12.135Z,9.37
2022-10-12T04:00:51.893Z,9.34
2022-10-12T04:02:31.653Z,9.32
2022-10-12T04:04:11.422Z,9.33
2022-10-12T04:05:51.194Z,9.32
2022-10-12T04:07:30.941Z,9.29
2022-10-12T04:09:10.713Z,9.28
2022-10-12T04:10:50.471Z,9.29
2022-10-12T04:12:30.239Z,9.25
2022-10-12T04:14:10.011Z,9.27
2022-10-12T04:15:49.768Z,9.24
2022-10-12T04:17:29.535Z,9.21
2022-10-12T04:19:09.310Z,9.2
2022-10-12T04:20:49.105Z,9.21
2022-10-12T04:22:28.826Z,9.18
2022-10-12T04:24:08.601Z,9.21
2022-10-12T04:25:48.363Z,9.18
2022-10-12T04:27:28.119Z,9.16
2022-10-12T04:29:07.902Z,9.17
2022-10-12T04:30:47.656Z,9.13
2022-10-12T04:32:27.415Z,9.1
2022-10-12T04:34:07.189Z,9.12
2022-10-12T04:35:46.950Z,9.13
2022-10-12T04:37:26.752Z,9.09
2022-10-12T04:39:06.536Z,9.06
2022-10-12T04:40:46.247Z,9.09
2022-10-12T04:42:26.005Z,9.08
2022-10-12T04:44:05.793Z,9.05
2022-10-12T04:45:45.560Z,9.05
2022-10-12T04:47:25.300Z,9.02
2022-10-12T04:49:05.100Z,9.01
2022-10-12T04:50:44.814Z,9.03
2022-10-12T04:52:24.594Z,8.97
2022-10-12T04:54:04.367Z,9
2022-10-12T04:55:44.122Z,8.95
2022-10-12T04:57:23.908Z,8.97
2022-10-12T04:59:03.646Z,8.93
2022-10-12T05:00:43.406Z,8.96
2022-10-12T05:02:23.192Z,8.95
2022-10-12T05:04:02.938Z,8.91
2022-10-12T05:05:42.709Z,8.93
2022-10-12T05:07:22.463Z,8.93
2022-10-12T05:09:02.336Z,8.95
2022-10-12T05:10:42.011Z,8.95
2022-10-12T05:12:21.771Z,8.93
2022-10-12T05:14:01.518Z,8.97
2022-10-12T05:15:41.285Z,8.99
2022-10-12T05:17:21.045Z,8.97
2022-10-12T05:19:00.833Z,8.97
2022-10-12T05:20:40.581Z,9.02
2022-10-12T05:22:20.348Z,9.03
2022-10-12T05:24:00.108Z,9.02
2022-10-12T05:25:39.879Z,9.02
2022-10-12T05:27:19.683Z,9.06
2022-10-12T05:28:59.399Z,9.04
2022-10-12T05:30:39.163Z,9.09
2022-10-12T05:32:18.976Z,9.1
2022-10-12T05:33:58.711Z,9.1
2022-10-12T05:35:38.464Z,9.09
2022-10-12T05:37:18.215Z,9.1
2022-10-12T05:38:58.001Z,9.1
2022-10-12T05:40:37.763Z,9.14
2022-10-12T05:42:17.513Z,9.1
2022-10-12T05:43:57.282Z,9.1
2022-10-12T05:45:37.038Z,9.12
2022-10-12T05:47:16.801Z,9.12
2022-10-12T05:48:56.563Z,9.1
2022-10-12T05:52:16.175Z,9.14
2022-10-12T05:53:55.870Z,9.1
2022-10-12T05:55:35.658Z,9.14
2022-10-12T05:57:15.406Z,9.13
2022-10-12T05:58:55.176Z,9.12
2022-10-12T06:00:34.957Z,9.13
2022-10-12T06:02:14.726Z,9.16
2022-10-12T06:03:54.519Z,9.18
2022-10-12T06:05:34.286Z,9.17
2022-10-12T06:07:14.038Z,9.17
2022-10-12T06:08:53.803Z,9.13
2022-10-12T06:10:33.569Z,9.17
2022-10-12T06:12:13.369Z,9.18
2022-10-12T06:13:53.115Z,9.18
2022-10-12T06:15:32.889Z,9.18
2022-10-12T06:17:12.659Z,9.14
2022-10-12T06:18:52.432Z,9.17
2022-10-12T06:20:32.201Z,9.14
2022-10-12T06:22:11.996Z,9.18
2022-10-12T06:23:51.742Z,9.14
2022-10-12T06:25:31.513Z,9.18
2022-10-12T06:27:11.279Z,9.17
2022-10-12T06:28:51.068Z,9.17
2022-10-12T06:30:30.814Z,9.2
2022-10-12T06:33:50.367Z,9.18
2022-10-12T06:35:30.135Z,9.22
2022-10-12T06:37:09.916Z,9.17
2022-10-12T06:38:49.686Z,9.22
2022-10-12T06:40:29.436Z,9.18
2022-10-12T06:42:09.225Z,9.22
2022-10-12T06:43:48.997Z,9.18
2022-10-12T06:45:28.794Z,9.24
2022-10-12T06:47:08.550Z,9.2
2022-10-12T06:48:48.357Z,9.24
2022-10-12T06:50:28.050Z,9.22
2022-10-12T06:52:07.866Z,9.21
2022-10-12T06:53:47.610Z,9.22
2022-10-12T06:55:27.376Z,9.26
2022-10-12T06:57:07.149Z,9.27
2022-10-12T06:58:46.900Z,9.27
2022-10-12T07:00:26.685Z,9.24
2022-10-12T07:02:06.552Z,9.28
2022-10-12T07:03:46.297Z,9.25
2022-10-12T07:05:26.025Z,9.3
2022-10-12T07:07:05.799Z,9.31
2022-10-12T07:08:45.593Z,9.28
2022-10-12T07:10:25.310Z,9.28
2022-10-12T07:12:05.138Z,9.29
2022-10-12T07:13:44.831Z,9.32
2022-10-12T07:15:24.636Z,9.34
2022-10-12T07:17:04.375Z,9.35
2022-10-12T07:18:44.160Z,9.33
2022-10-12T07:20:23.931Z,9.35
2022-10-12T07:22:03.699Z,9.34
2022-10-12T07:23:43.479Z,9.38
2022-10-12T07:25:23.232Z,9.39
2022-10-12T07:27:03.074Z,9.38
2022-10-12T07:28:42.782Z,9.39
2022-10-12T07:30:22.536Z,9.39
2022-10-12T07:32:02.329Z,9.38
2022-10-12T07:33:42.125Z,9.43
2022-10-12T07:35:21.856Z,9.43
2022-10-12T07:37:01.652Z,9.43
2022-10-12T07:38:41.436Z,9.47
2022-10-12T07:40:21.239Z,9.49
2022-10-12T07:42:00.952Z,9.5
2022-10-12T07:43:40.693Z,9.46
2022-10-12T07:45:20.489Z,9.53
2022-10-12T07:47:00.270Z,9.52
2022-10-12T07:48:40.022Z,9.55
2022-10-12T07:50:19.801Z,9.56
2022-10-12T07:51:59.554Z,9.57
2022-10-12T07:53:39.327Z,9.58
2022-10-12T07:55:19.106Z,9.6
2022-10-12T07:56:58.861Z,9.6
2022-10-12T07:58:38.650Z,9.6
2022-10-12T08:00:18.396Z,9.64
2022-10-12T08:01:58.173Z,9.64
2022-10-12T08:03:37.959Z,9.68
2022-10-12T08:05:17.737Z,9.71
2022-10-12T08:06:57.481Z,9.7
2022-10-12T08:08:37.261Z,9.72
2022-10-12T08:10:17.025Z,9.79
2022-10-12T08:11:56.823Z,9.85
2022-10-12T08:13:36.567Z,9.89
2022-10-12T08:15:16.347Z,9.99
2022-10-12T08:16:56.105Z,10.07
2022-10-12T08:18:35.886Z,10.17
2022-10-12T08:20:15.640Z,10.26
2022-10-12T08:21:55.421Z,10.33
2022-10-12T08:23:35.202Z,10.39
2022-10-12T08:25:14.981Z,10.47
2022-10-12T08:26:54.751Z,10.55
2022-10-12T08:28:34.504Z,10.61
2022-10-12T08:30:14.268Z,10.67
2022-10-12T08:31:54.035Z,10.77
2022-10-12T08:33:33.869Z,10.9
2022-10-12T08:35:13.614Z,10.96
2022-10-12T08:36:53.371Z,11.07
2022-10-12T08:38:33.140Z,11.17
2022-10-12T08:40:12.905Z,11.23
2022-10-12T08:41:52.714Z,11.31
2022-10-12T08:43:32.442Z,11.42
2022-10-12T08:45:12.296Z,11.46
2022-10-12T08:46:51.987Z,11.53
2022-10-12T08:48:31.743Z,11.64
2022-10-12T08:50:11.541Z,11.71
2022-10-12T08:51:51.320Z,11.78
2022-10-12T08:53:31.072Z,11.82
2022-10-12T08:55:10.850Z,11.88
2022-10-12T08:56:50.667Z,11.95
2022-10-12T08:58:30.355Z,12.04
2022-10-12T09:00:10.129Z,12.08
2022-10-12T09:01:49.902Z,12.14
2022-10-12T09:03:29.675Z,12.23
2022-10-12T09:05:09.442Z,12.25
2022-10-12T09:06:49.301Z,12.35
2022-10-12T09:08:29.010Z,12.38
2022-10-12T09:10:08.833Z,12.45
2022-10-12T09:11:48.519Z,12.52
2022-10-12T09:13:28.307Z,12.56
2022-10-12T09:15:08.073Z,12.65
2022-10-12T09:16:47.845Z,12.69
2022-10-12T09:18:27.602Z,12.78
2022-10-12T09:20:07.392Z,12.8
2022-10-12T09:21:47.154Z,12.88
2022-10-12T09:23:26.916Z,12.93
2022-10-12T09:25:06.723Z,13
2022-10-12T09:26:46.461Z,13.06
2022-10-12T09:28:26.224Z,13.08
2022-10-12T09:30:06.000Z,13.15
2022-10-12T09:31:45.786Z,13.2
2022-10-12T09:35:05.315Z,13.32
2022-10-12T09:36:45.094Z,13.39
2022-10-12T09:38:24.855Z,13.42
2022-10-12T09:40:04.628Z,13.48
2022-10-12T09:41:44.390Z,13.55
2022-10-12T09:43:24.155Z,13.57
2022-10-12T09:45:03.937Z,13.64
2022-10-12T09:46:43.699Z,13.71
2022-10-12T09:48:23.466Z,13.77
2022-10-12T09:50:03.252Z,13.79
2022-10-12T09:51:43.021Z,13.86
2022-10-12T09:53:22.777Z,13.9
2022-10-12T09:55:02.555Z,13.99
2022-10-12T09:56:42.324Z,14.04
2022-10-12T09:58:22.142Z,14.06
2022-10-12T10:00:01.895Z,14.13
2022-10-12T10:01:41.643Z,14.2
2022-10-12T10:03:21.412Z,14.21
2022-10-12T10:05:01.235Z,14.32
2022-10-12T10:06:40.951Z,14.35
2022-10-12T10:08:20.720Z,14.42
2022-10-12T10:10:00.526Z,14.45
2022-10-12T10:11:40.274Z,14.49
2022-10-12T10:13:20.092Z,14.54
2022-10-12T10:14:59.818Z,14.63
2022-10-12T10:16:39.574Z,14.66
2022-10-12T10:18:19.342Z,14.69
2022-10-12T10:19:59.113Z,14.77
2022-10-12T10:21:38.888Z,14.79
2022-10-12T10:23:18.655Z,14.87
2022-10-12T10:24:58.420Z,14.89
2022-10-12T10:26:38.186Z,14.91
2022-10-12T10:28:17.965Z,14.99
2022-10-12T10:29:57.733Z,15.02
2022-10-12T10:31:37.631Z,15.06
2022-10-12T10:33:17.289Z,15.11
2022-10-12T10:34:57.055Z,15.17
2022-10-12T10:36:36.823Z,15.21
2022-10-12T10:38:16.616Z,15.25
2022-10-12T10:39:56.393Z,15.28
2022-10-12T10:41:36.128Z,15.38
2022-10-12T10:43:15.915Z,15.39
2022-10-12T10:44:55.665Z,15.46
2022-10-12T10:46:35.438Z,15.48
2022-10-12T10:48:15.223Z,15.53
2022-10-12T10:49:54.978Z,15.57
2022-10-12T10:51:34.750Z,15.63
2022-10-12T10:53:14.520Z,15.63
2022-10-12T10:54:54.289Z,15.75
2022-10-12T10:56:34.069Z,15.76
2022-10-12T10:58:13.837Z,15.83
2022-10-12T10:59:53.596Z,15.85
2022-10-12T11:01:33.375Z,15.87
2022-10-12T11:03:13.145Z,15.93
2022-10-12T11:04:52.906Z,15.96
2022-10-12T11:06:32.687Z,16.01
2022-10-12T11:08:12.473Z,16.09
2022-10-12T11:09:52.288Z,16.12
2022-10-12T11:11:32.000Z,16.14
2022-10-12T11:13:11.774Z,16.2
2022-10-12T11:14:51.541Z,16.23
2022-10-12T11:16:31.303Z,16.28
2022-10-12T11:18:11.100Z,16.32
2022-10-12T11:19:50.839Z,16.36
2022-10-12T11:21:30.641Z,16.45
2022-10-12T11:23:10.390Z,16.49
2022-10-12T11:24:50.190Z,16.5
2022-10-12T11:26:29.932Z,16.54
2022-10-12T11:28:09.701Z,16.61
2022-10-12T11:29:49.472Z,16.64
2022-10-12T11:31:29.269Z,16.65
2022-10-12T11:39:48.081Z,16.7
2022-10-12T11:41:27.852Z,16.7
2022-10-12T11:43:07.725Z,16.78
2022-10-12T11:44:47.537Z,16.84
2022-10-12T11:48:07.018Z,16.92
2022-10-12T11:49:46.761Z,16.95
2022-10-12T11:51:26.493Z,17
2022-10-12T11:53:06.272Z,17.04
2022-10-12T11:54:46.003Z,17.1
2022-10-12T11:56:25.801Z,17.18
2022-10-12T11:58:05.548Z,17.23
2022-10-12T11:59:45.317Z,17.25
2022-10-12T12:01:25.089Z,17.32
2022-10-12T12:03:04.910Z,17.37
2022-10-12T12:04:44.645Z,17.44
2022-10-12T12:06:24.426Z,17.49
2022-10-12T12:08:04.317Z,17.5
2022-10-12T12:09:43.932Z,17.57
2022-10-12T12:11:23.820Z,17.64
2022-10-12T12:13:03.545Z,17.68
2022-10-12T12:14:43.345Z,17.7
2022-10-12T12:16:23.034Z,17.77
2022-10-12T12:18:02.847Z,17.79
2022-10-12T12:21:22.373Z,17.9
2022-10-12T12:23:02.129Z,17.93
2022-10-12T12:24:41.937Z,18.01
2022-10-12T12:26:21.674Z,18.06
2022-10-12T12:28:01.471Z,18.06
2022-10-12T12:29:41.187Z,18.09
2022-10-12T12:31:20.953Z,18.18
2022-10-12T12:33:00.767Z,18.18
2022-10-12T12:34:40.591Z,18.2
2022-10-12T12:36:20.403Z,18.25
2022-10-12T12:38:00.112Z,18.26
2022-10-12T12:39:39.831Z,18.31
2022-10-12T12:41:19.645Z,18.33
2022-10-12T12:42:59.350Z,18.34
2022-10-12T12:44:39.182Z,18.37
2022-10-12T12:46:18.928Z,18.43
2022-10-12T12:47:58.721Z,18.46
2022-10-12T12:49:38.523Z,18.5
2022-10-12T12:51:18.299Z,18.53
2022-10-12T12:52:58.009Z,18.54
2022-10-12T12:54:37.834Z,18.57
2022-10-12T12:56:17.506Z,18.65
2022-10-12T12:57:57.327Z,18.65
2022-10-12T12:59:37.054Z,18.68
2022-10-12T13:01:16.908Z,18.7
2022-10-12T13:02:56.594Z,18.71
2022-10-12T13:04:36.366Z,18.77
2022-10-12T13:06:16.144Z,18.81
2022-10-12T13:07:55.900Z,18.81
2022-10-12T13:09:35.760Z,18.85
2022-10-12T13:11:15.468Z,18.87
2022-10-12T13:12:55.208Z,18.91
2022-10-12T13:14:35.008Z,18.94
2022-10-12T13:16:14.762Z,18.95
2022-10-12T13:17:54.539Z,18.96
2022-10-12T13:19:34.301Z,19.01
2022-10-12T13:21:14.057Z,19.03
2022-10-12T13:22:53.870Z,19.08
2022-10-12T13:24:33.634Z,19.1
2022-10-12T13:26:13.382Z,19.11
2022-10-12T13:27:53.140Z,19.12
2022-10-12T13:29:32.920Z,19.18
2022-10-12T13:31:12.682Z,19.2
2022-10-12T13:32:52.460Z,19.23
2022-10-12T13:34:32.261Z,19.21
2022-10-12T13:36:12.011Z,19.26
2022-10-12T13:37:51.773Z,19.29
2022-10-12T13:39:31.597Z,19.29
2022-10-12T13:41:11.320Z,19.31
2022-10-12T13:42:51.150Z,19.37
2022-10-12T13:44:30.854Z,19.37
2022-10-12T13:46:10.632Z,19.37
2022-10-12T13:47:50.398Z,19.42
2022-10-12T13:49:30.184Z,19.41
2022-10-12T13:51:09.941Z,19.45
2022-10-12T13:52:49.726Z,19.45
2022-10-12T13:54:29.488Z,19.46
2022-10-12T13:56:09.243Z,19.49
2022-10-12T13:57:49.034Z,19.53
2022-10-12T13:59:28.815Z,19.54
2022-10-12T14:01:08.583Z,19.56
2022-10-12T14:02:48.315Z,19.6
2022-10-12T14:04:28.088Z,19.62
2022-10-12T14:06:07.866Z,19.6
2022-10-12T14:07:47.636Z,19.65
2022-10-12T14:09:27.431Z,19.64
2022-10-12T14:11:07.163Z,19.68
2022-10-12T14:12:46.953Z,19.69
2022-10-12T14:14:26.713Z,19.7
2022-10-12T14:16:06.477Z,19.7
2022-10-12T14:17:46.256Z,19.71
2022-10-12T14:19:26.040Z,19.73
2022-10-12T14:21:05.790Z,19.77
2022-10-12T14:22:45.568Z,19.79
2022-10-12T14:24:25.343Z,19.79
2022-10-12T14:26:05.118Z,19.79
2022-10-12T14:27:44.889Z,19.84
2022-10-12T14:29:24.657Z,19.84
2022-10-12T14:31:04.419Z,19.85
2022-10-12T14:32:44.229Z,19.85
2022-10-12T14:36:03.737Z,19.89
2022-10-12T14:37:43.514Z,19.89
2022-10-12T14:39:23.265Z,19.89
2022-10-12T14:41:03.044Z,19.93
2022-10-12T14:42:42.824Z,19.94
2022-10-12T14:44:22.583Z,19.95
2022-10-12T14:46:02.351Z,19.93
2022-10-12T14:47:42.120Z,19.93
2022-10-12T14:49:21.891Z,19.96
2022-10-12T14:51:01.667Z,19.98
2022-10-12T14:52:41.467Z,19.95
2022-10-12T14:54:21.209Z,19.96
2022-10-12T14:56:01.011Z,20.01
2022-10-12T14:57:40.737Z,19.99
2022-10-12T14:59:20.522Z,20.03
2022-10-12T15:01:00.290Z,20.04
2022-10-12T15:02:40.063Z,20.02
2022-10-12T15:04:19.841Z,20.02
2022-10-12T15:05:59.598Z,20.04
2022-10-12T15:07:39.367Z,20.04
2022-10-12T15:09:19.191Z,20.03
2022-10-12T15:10:58.921Z,20.04
2022-10-12T15:12:38.714Z,20.07
2022-10-12T15:14:18.455Z,20.06
2022-10-12T15:15:58.225Z,20.09
2022-10-12T15:17:37.995Z,20.06
2022-10-12T15:19:17.789Z,20.09
2022-10-12T15:20:57.586Z,20.1
2022-10-12T15:22:37.304Z,20.1
2022-10-12T15:24:17.070Z,20.12
2022-10-12T15:25:56.849Z,20.09
2022-10-12T15:27:36.630Z,20.08
2022-10-12T15:29:16.400Z,20.09
2022-10-12T15:30:56.145Z,20.11
2022-10-12T15:32:35.928Z,20.09
2022-10-12T15:34:15.731Z,20.1
2022-10-12T15:35:55.467Z,20.09
2022-10-12T15:37:35.227Z,20.09
2022-10-12T15:39:15.050Z,20.09
2022-10-12T15:40:54.782Z,20.1
2022-10-12T15:42:34.551Z,20.11
2022-10-12T15:44:14.348Z,20.08
2022-10-12T15:45:54.101Z,20.06
2022-10-12T15:47:33.913Z,20.06
2022-10-12T15:49:13.677Z,20.06
2022-10-12T15:50:53.396Z,20.04
2022-10-12T15:52:33.187Z,20.04
2022-10-12T15:54:13.004Z,20.04
2022-10-12T15:55:52.771Z,20.04
2022-10-12T15:57:32.490Z,20
2022-10-12T15:59:12.321Z,20.03
2022-10-12T16:00:52.071Z,20
2022-10-12T16:02:31.791Z,20.01
2022-10-12T16:04:11.573Z,20
2022-10-12T16:05:51.338Z,19.95
2022-10-12T16:07:31.113Z,19.91
2022-10-12T16:09:10.863Z,19.85
2022-10-12T16:10:50.648Z,19.83
2022-10-12T16:12:30.421Z,19.78
2022-10-12T16:14:10.187Z,19.77
2022-10-12T16:15:49.947Z,19.73
2022-10-12T16:17:29.702Z,19.7
2022-10-12T16:19:09.473Z,19.7
2022-10-12T16:20:49.242Z,19.68
2022-10-12T16:22:29.004Z,19.62
2022-10-12T16:24:08.775Z,19.58
2022-10-12T16:25:48.545Z,19.6
2022-10-12T16:27:28.314Z,19.54
2022-10-12T16:29:08.071Z,19.49
2022-10-12T16:30:47.842Z,19.48
2022-10-12T16:32:27.618Z,19.44
2022-10-12T16:34:07.388Z,19.41
2022-10-12T16:37:26.917Z,19.34
2022-10-12T16:39:06.687Z,19.32
2022-10-12T16:40:46.455Z,19.28
2022-10-12T16:42:26.228Z,19.25
2022-10-12T16:44:06.014Z,19.2
2022-10-12T16:47:25.530Z,19.09
2022-10-12T16:49:05.322Z,19.01
2022-10-12T16:50:45.066Z,18.99
2022-10-12T16:52:24.825Z,18.91
2022-10-12T16:54:04.600Z,18.87
2022-10-12T16:55:44.359Z,18.79
2022-10-12T16:57:24.122Z,18.76
2022-10-12T16:59:03.895Z,18.7
2022-10-12T17:00:43.667Z,18.62
2022-10-12T17:02:23.432Z,18.58
2022-10-12T17:04:03.233Z,18.56
2022-10-12T17:05:42.966Z,18.5
2022-10-12T17:07:22.740Z,18.45
2022-10-12T17:09:02.495Z,18.4
2022-10-12T17:10:42.274Z,18.35
2022-10-12T17:12:22.040Z,18.29
2022-10-12T17:14:01.836Z,18.25
2022-10-12T17:15:41.567Z,18.21
2022-10-12T17:17:21.406Z,18.17
2022-10-12T17:19:01.105Z,18.12
2022-10-12T17:20:40.864Z,18.06
2022-10-12T17:22:20.630Z,18.01
2022-10-12T17:24:00.420Z,17.99
2022-10-12T17:25:40.176Z,17.92
2022-10-12T17:27:19.942Z,17.91
2022-10-12T17:28:59.706Z,17.84
2022-10-12T17:30:39.479Z,17.78
2022-10-12T17:32:19.241Z,17.76
2022-10-12T17:33:59.020Z,17.7
2022-10-12T17:35:38.784Z,17.66
2022-10-12T17:37:18.539Z,17.62
2022-10-12T17:38:58.321Z,17.56
2022-10-12T17:40:38.127Z,17.53
2022-10-12T17:42:17.854Z,17.49
2022-10-12T17:43:57.603Z,17.45
2022-10-12T17:45:37.377Z,17.42
2022-10-12T17:47:17.147Z,17.37
2022-10-12T17:48:56.910Z,17.32
2022-10-12T17:50:36.701Z,17.29
2022-10-12T17:52:16.455Z,17.24
2022-10-12T17:53:56.223Z,17.19
2022-10-12T17:55:35.976Z,17.19
2022-10-12T17:57:15.741Z,17.11
2022-10-12T17:58:55.520Z,17.08
2022-10-12T18:00:35.282Z,17.04
2022-10-12T18:02:15.058Z,17.01
2022-10-12T18:03:54.844Z,16.98
2022-10-12T18:05:34.593Z,16.94
2022-10-12T18:07:14.350Z,16.87
2022-10-12T18:08:54.131Z,16.84
2022-10-12T18:10:33.904Z,16.79
2022-10-12T18:12:13.664Z,16.77
2022-10-12T18:13:53.456Z,16.74
2022-10-12T18:15:33.221Z,16.68
2022-10-12T18:17:13.005Z,16.68
2022-10-12T18:18:52.732Z,16.64
2022-10-12T18:20:32.511Z,16.61
2022-10-12T18:23:52.066Z,16.5
2022-10-12T18:25:31.798Z,16.45
2022-10-12T18:27:11.571Z,16.43
2022-10-12T18:28:51.344Z,16.41
2022-10-12T18:30:31.111Z,16.37
2022-10-12T18:32:10.870Z,16.32
2022-10-12T18:33:50.683Z,16.28
2022-10-12T18:35:30.417Z,16.25
2022-10-12T18:37:10.183Z,16.2
2022-10-12T18:38:49.950Z,16.2
2022-10-12T18:40:29.695Z,16.14
2022-10-12T18:42:09.467Z,16.1
2022-10-12T18:43:49.235Z,16.07
2022-10-12T18:45:29.024Z,16.06
2022-10-12T18:47:08.768Z,16.01
2022-10-12T18:48:48.557Z,15.98
2022-10-12T18:50:28.307Z,15.96
2022-10-12T18:52:08.148Z,15.91
2022-10-12T18:53:47.850Z,15.89
2022-10-12T18:55:27.610Z,15.84
2022-10-12T18:57:07.393Z,15.82
2022-10-12T18:58:47.148Z,15.77
2022-10-12T19:00:26.913Z,15.73
2022-10-12T19:02:06.695Z,15.73
2022-10-12T19:03:46.453Z,15.69
2022-10-12T19:05:26.217Z,15.67
2022-10-12T19:07:05.995Z,15.62
2022-10-12T19:08:45.749Z,15.58
2022-10-12T19:10:25.517Z,15.55
2022-10-12T19:12:05.303Z,15.53
2022-10-12T19:13:45.069Z,15.5
2022-10-12T19:15:24.839Z,15.46
2022-10-12T19:17:04.589Z,15.46
2022-10-12T19:18:44.351Z,15.41
2022-10-12T19:20:24.121Z,15.39
2022-10-12T19:22:03.894Z,15.33
2022-10-12T19:23:43.650Z,15.31
2022-10-12T19:25:23.426Z,15.3
2022-10-12T19:27:03.194Z,15.28
2022-10-12T19:28:42.955Z,15.22
2022-10-12T19:30:22.728Z,15.19
2022-10-12T19:32:02.503Z,15.15
2022-10-12T19:33:42.256Z,15.15
2022-10-12T19:35:22.044Z,15.12
2022-10-12T19:37:01.789Z,15.09
2022-10-12T19:38:41.585Z,15.05
2022-10-12T19:40:21.329Z,15.05
2022-10-12T19:42:01.142Z,14.98
2022-10-12T19:43:40.866Z,14.95
2022-10-12T19:45:20.640Z,14.95
2022-10-12T19:47:00.409Z,14.9
2022-10-12T19:48:40.164Z,14.9
2022-10-12T19:50:19.959Z,14.86
2022-10-12T19:51:59.726Z,14.84
2022-10-12T19:53:39.486Z,14.78
2022-10-12T19:55:19.238Z,14.78
2022-10-12T19:56:59.009Z,14.75
2022-10-12T19:58:38.776Z,14.72
2022-10-12T20:00:18.555Z,14.68
2022-10-12T20:01:58.307Z,14.66
2022-10-12T20:03:38.071Z,14.61
2022-10-12T20:05:17.845Z,14.61
2022-10-12T20:06:57.614Z,14.58
2022-10-12T20:08:37.375Z,14.53
2022-10-12T20:10:17.168Z,14.52
2022-10-12T20:11:56.907Z,14.48
2022-10-12T20:13:36.689Z,14.48
2022-10-12T20:15:16.456Z,14.45
2022-10-12T20:16:56.229Z,14.39
2022-10-12T20:18:35.982Z,14.4
2022-10-12T20:20:15.759Z,14.34
2022-10-12T20:21:55.536Z,14.33
2022-10-12T20:23:35.277Z,14.31
2022-10-12T20:25:15.057Z,14.27
2022-10-12T20:26:54.827Z,14.25
2022-10-12T20:28:34.583Z,14.23
2022-10-12T20:30:14.341Z,14.2
2022-10-12T20:31:54.118Z,14.18
2022-10-12T20:33:33.894Z,14.12
2022-10-12T20:35:13.656Z,14.11
2022-10-12T20:36:53.453Z,14.09
2022-10-12T20:38:33.194Z,14.04
2022-10-12T20:40:12.948Z,14.03
2022-10-12T20:41:52.725Z,14.01
2022-10-12T20:43:32.500Z,13.99
2022-10-12T20:45:12.258Z,13.97
2022-10-12T20:46:52.039Z,13.93
2022-10-12T20:48:31.794Z,13.9
2022-10-12T20:50:11.565Z,13.89
2022-10-12T20:51:51.341Z,13.86
2022-10-12T20:53:31.107Z,13.81
2022-10-12T20:55:10.857Z,13.79
2022-10-12T20:56:50.634Z,13.79
2022-10-12T20:58:30.393Z,13.75
2022-10-12T21:00:10.169Z,13.74
2022-10-12T21:01:49.957Z,13.68
2022-10-12T21:03:29.729Z,13.68
2022-10-12T21:05:09.474Z,13.64
2022-10-12T21:06:49.244Z,13.61
2022-10-12T21:08:29.004Z,13.6
2022-10-12T21:10:08.770Z,13.58
2022-10-12T21:11:48.562Z,13.57
2022-10-12T21:13:28.297Z,13.54
2022-10-12T21:15:08.063Z,13.52
2022-10-12T21:16:47.823Z,13.49
2022-10-12T21:18:27.617Z,13.46
2022-10-12T21:20:07.365Z,13.42
2022-10-12T21:21:47.155Z,13.39
2022-10-12T21:23:26.919Z,13.36
2022-10-12T21:25:06.693Z,13.36
2022-10-12T21:26:46.451Z,13.35
2022-10-12T21:28:26.238Z,13.32
2022-10-12T21:30:06.031Z,13.3
2022-10-12T21:31:45.743Z,13.27
2022-10-12T21:33:25.509Z,13.24
2022-10-12T21:35:05.279Z,13.22
2022-10-12T21:36:45.068Z,13.2
2022-10-12T21:38:24.821Z,13.15
2022-10-12T21:40:04.587Z,13.15
2022-10-12T21:41:44.351Z,13.12
2022-10-12T21:43:24.117Z,13.09
2022-10-12T21:45:03.917Z,13.09
2022-10-12T21:46:43.663Z,13.08
2022-10-12T21:48:23.423Z,13.03
2022-10-12T21:50:03.192Z,13.01
2022-10-12T21:51:42.957Z,13
2022-10-12T21:53:22.718Z,12.98
2022-10-12T21:55:02.489Z,12.93
2022-10-12T21:56:42.265Z,12.93
2022-10-12T21:58:22.186Z,12.89
2022-10-12T22:00:01.858Z,12.88
2022-10-12T22:01:41.559Z,12.85
2022-10-12T22:03:21.325Z,12.82
2022-10-12T22:05:01.088Z,12.83
2022-10-12T22:06:40.853Z,12.77